^^
Meteo Knjazevac Station Historical Data
Daily Summary for March 12, 2021 Units:  Metric    English   Both
Daily Weekly Monthly Yearly Custom
  High: Low: Average:
Temperature: 23.3 °C 10.5 °C 17.3 °C
Dew Point: 18.6 °C 10.3 °C 15.2 °C
Humidity: 99% 70.5% 88%
Wind Speed: 12.9km/h 0km/h 2.7km/h
Wind Gust: 25.7km/h - -
Wind- - SW
Pressure: 1019.5 hPa 1017.5 hPa -
Precipitation: 0.25 mm    
Historical Graphs
 
 
Tabular Data for March 12, 2021
Time Temperature Dew Point Pressure Wind Wind Speed Wind Gust Humidity Rainfall Rate (Hourly) solar Conditions
00:00 12.8 °C 12.5 °C 1018.5 hPa Calm   3.2 km/h 98% 0 mm 0 W/m2
00:10 12.6 °C 12.3 °C 1018.8 hPa Calm   3.2 km/h 98% 0 mm 0 W/m2
00:20 12.4 °C 12.1 °C 1018.8 hPa NW 1.6 km/h 3.2 km/h 98% 0 mm 0 W/m2
00:30 12.3 °C 12.2 °C 1018.8 hPa West 3.2 km/h 4.8 km/h 99% 0 mm 0 W/m2
00:40 12.2 °C 12.1 °C 1018.8 hPa WNW 3.2 km/h 3.2 km/h 99% 0 mm 0 W/m2
00:50 12 °C 11.8 °C 1018.8 hPa West 1.6 km/h 4.8 km/h 99% 0 mm 0 W/m2
01:00 12 °C 11.8 °C 1018.8 hPa West 3.2 km/h 8 km/h 99% 0 mm 0 W/m2
01:10 11.9 °C 11.7 °C 1018.8 hPa Calm   4.8 km/h 99% 0 mm 0 W/m2
01:20 11.8 °C 11.7 °C 1018.8 hPa Calm   6.4 km/h 99% 0 mm 0 W/m2
01:30 11.8 °C 11.7 °C 1018.8 hPa Calm   3.2 km/h 99% 0 mm 0 W/m2
01:40 11.8 °C 11.7 °C 1018.8 hPa Calm   3.2 km/h 99% 0 mm 0 W/m2
01:50 11.7 °C 11.6 °C 1018.8 hPa Calm   3.2 km/h 99% 0 mm 0 W/m2
02:00 11.6 °C 11.4 °C 1018.8 hPa Calm   3.2 km/h 99% 0 mm 0 W/m2
02:10 11.6 °C 11.4 °C 1018.8 hPa NW 1.6 km/h 3.2 km/h 99% 0 mm 0 W/m2
02:20 11.5 °C 11.3 °C 1018.8 hPa Calm   3.2 km/h 99% 0 mm 0 W/m2
02:30 11.4 °C 11.2 °C 1018.8 hPa Calm   3.2 km/h 99% 0 mm 0 W/m2
02:40 11.3 °C 11.2 °C 1018.5 hPa NW 1.6 km/h 3.2 km/h 99% 0 mm 0 W/m2
02:50 11.3 °C 11.2 °C 1018.5 hPa Calm   3.2 km/h 99% 0 mm 0 W/m2
03:00 11.3 °C 11.2 °C 1018.5 hPa Calm   3.2 km/h 99% 0 mm 0 W/m2
03:10 11.3 °C 11.2 °C 1018.5 hPa NNW 1.6 km/h 3.2 km/h 99% 0 mm 0 W/m2
03:20 11.4 °C 11.2 °C 1018.5 hPa Calm   3.2 km/h 99% 0 mm 0 W/m2
03:30 11.4 °C 11.2 °C 1018.5 hPa Calm   4.8 km/h 99% 0 mm 0 W/m2
03:40 11.4 °C 11.2 °C 1018.5 hPa Calm   4.8 km/h 99% 0 mm 0 W/m2
03:50 11.3 °C 11.2 °C 1018.8 hPa East 1.6 km/h 8 km/h 99% 0 mm 0 W/m2
04:00 11.3 °C 11.2 °C 1018.8 hPa Calm   8 km/h 99% 0 mm 0 W/m2
04:10 11.2 °C 11.1 °C 1018.8 hPa Calm   4.8 km/h 99% 0 mm 0 W/m2
04:20 11 °C 10.8 °C 1018.8 hPa Calm   3.2 km/h 99% 0 mm 0 W/m2
04:30 10.8 °C 10.7 °C 1018.8 hPa Calm   1.6 km/h 99% 0 mm 0 W/m2
04:40 10.8 °C 10.7 °C 1018.8 hPa Calm     99% 0 mm 0 W/m2
04:50 10.7 °C 10.6 °C 1018.8 hPa Calm   3.2 km/h 99% 0 mm 3 W/m2
05:00 10.7 °C 10.6 °C 1018.8 hPa Calm   1.6 km/h 99% 0 mm 7 W/m2
05:10 10.6 °C 10.4 °C 1019.2 hPa Calm   3.2 km/h 99% 0 mm 14 W/m2
05:20 10.6 °C 10.4 °C 1019.2 hPa Calm   3.2 km/h 99% 0 mm 22 W/m2
05:30 10.5 °C 10.3 °C 1019.2 hPa Calm   3.2 km/h 99% 0 mm 27 W/m2
05:40 10.5 °C 10.3 °C 1019.2 hPa Calm   3.2 km/h 99% 0 mm 36 W/m2
05:50 10.6 °C 10.4 °C 1019.2 hPa Calm   4.8 km/h 99% 0 mm 55 W/m2
06:00 10.8 °C 10.7 °C 1019.2 hPa NNE 1.6 km/h 3.2 km/h 99% 0 mm 86 W/m2
06:10 10.8 °C 10.7 °C 1019.2 hPa Calm   3.2 km/h 99% 0 mm 119 W/m2
06:20 10.8 °C 10.7 °C 1019.2 hPa Calm   3.2 km/h 99% 0 mm 136 W/m2
06:30 11.1 °C 10.9 °C 1019.2 hPa Calm   3.2 km/h 99% 0 mm 171 W/m2
06:40 11.3 °C 11.2 °C 1019.2 hPa North 1.6 km/h 3.2 km/h 99% 0 mm 205 W/m2
06:50 11.8 °C 11.7 °C 1019.2 hPa Calm   8 km/h 99% 0 mm 271 W/m2
07:00 12.1 °C 11.9 °C 1019.5 hPa Calm   3.2 km/h 99% 0 mm 189 W/m2
07:10 12.6 °C 12.4 °C 1019.5 hPa SE 3.2 km/h 9.7 km/h 99% 0 mm 275 W/m2
07:20 13.1 °C 12.9 °C 1019.2 hPa SSE 1.6 km/h 8 km/h 99% 0 mm 377 W/m2
07:30 13.6 °C 13.4 °C 1019.5 hPa SSW 1.6 km/h 4.8 km/h 99% 0 mm 415 W/m2
07:40 14.1 °C 13.9 °C 1019.5 hPa East 3.2 km/h 6.4 km/h 99% 0 mm 413 W/m2
07:50 14.5 °C 14.4 °C 1019.5 hPa SSE 1.6 km/h 4.8 km/h 99% 0 mm 427 W/m2
08:00 14.9 °C 14.7 °C 1019.5 hPa South 1.6 km/h 4.8 km/h 99% 0 mm 469 W/m2
08:10 15.4 °C 15.3 °C 1019.5 hPa SSE 1.6 km/h 8 km/h 99% 0 mm 506 W/m2
08:20 16 °C 15.7 °C 1019.2 hPa SSE 3.2 km/h 11.3 km/h 98% 0 mm 544 W/m2
08:30 16.5 °C 15.6 °C 1019.2 hPa SSE 3.2 km/h 11.3 km/h 94% 0 mm 584 W/m2
08:40 16.9 °C 15.8 °C 1019.2 hPa SSW 3.2 km/h 6.4 km/h 93% 0 mm 622 W/m2
08:50 17.6 °C 16.1 °C 1019.2 hPa SSE 3.2 km/h 8 km/h 91% 0 mm 650 W/m2
09:00 18.7 °C 16.8 °C 1019.2 hPa SSW 4.8 km/h 11.3 km/h 89% 0 mm 677 W/m2
09:10 19.6 °C 16.8 °C 1019.2 hPa SW 9.7 km/h 12.9 km/h 84% 0 mm 703 W/m2
09:20 20.3 °C 17.3 °C 1019.2 hPa SSW 4.8 km/h 12.9 km/h 83% 0 mm 626 W/m2
09:30 20.5 °C 16.9 °C 1019.2 hPa SW 4.8 km/h 11.3 km/h 80% 0 mm 356 W/m2
09:40 20.4 °C 16.8 °C 1019.2 hPa SW 8 km/h 11.3 km/h 80% 0 mm 576 W/m2
09:50 20.8 °C 17.2 °C 1019.2 hPa SW 4.8 km/h 11.3 km/h 80% 0 mm 723 W/m2
10:00 21.3 °C 17.1 °C 1018.8 hPa SW 4.8 km/h 9.7 km/h 77% 0 mm 819 W/m2
10:10 21.7 °C 17.7 °C 1018.8 hPa SW 4.8 km/h 11.3 km/h 78% 0 mm 839 W/m2
10:20 22.2 °C 17.6 °C 1018.8 hPa SW 3.2 km/h 11.3 km/h 75% 0 mm 857 W/m2
10:30 22.5 °C 17.9 °C 1018.8 hPa SW 4.8 km/h 11.3 km/h 75% 0 mm 875 W/m2
10:40 22.9 °C 17.8 °C 1018.8 hPa SSW 4.8 km/h 11.3 km/h 73% 0 mm 423 W/m2
10:50 22.8 °C 17.7 °C 1018.8 hPa SSW 8 km/h 12.9 km/h 73% 0 mm 906 W/m2
11:00 23.1 °C 18 °C 1018.5 hPa South 4.8 km/h 9.7 km/h 73% 0 mm 425 W/m2
11:30 23.3 °C 17.6 °C 1018.5 hPa SSW 5.6 km/h 14.5 km/h 70.5% 0 mm 707 W/m2
11:40 22.7 °C 17.8 °C 1018.5 hPa SW 8 km/h 12.9 km/h 74% 0 mm 157 W/m2
11:50 22.1 °C 17.9 °C 1018.5 hPa WSW 4.8 km/h 11.3 km/h 77% 0 mm 192 W/m2
12:00 22.2 °C 18 °C 1018.5 hPa SW 4.8 km/h 11.3 km/h 77% 0 mm 972 W/m2
12:10 23.1 °C 18.6 °C 1018.2 hPa SW 9.7 km/h 14.5 km/h 76% 0 mm 705 W/m2
12:20 23.2 °C 18.3 °C 1018.5 hPa SW 9.7 km/h 19.3 km/h 74% 0 mm 208 W/m2
12:30 22.4 °C 18.6 °C 1018.2 hPa WSW 12.9 km/h 22.5 km/h 79% 0 mm 949 W/m2
12:40 22.7 °C 18 °C 1018.2 hPa West 9.7 km/h 22.5 km/h 75% 0 mm 700 W/m2
12:50 22.8 °C 17.7 °C 1018.2 hPa WSW 12.9 km/h 22.5 km/h 73% 0 mm 974 W/m2
13:00 22.9 °C 17.8 °C 1018.2 hPa West 12.9 km/h 25.7 km/h 73% 0 mm 970 W/m2
13:10 22.5 °C 17.2 °C 1018.2 hPa West 4.8 km/h 25.7 km/h 72% 0 mm 288 W/m2
13:20 22.1 °C 17.5 °C 1017.8 hPa WNW 11.3 km/h 19.3 km/h 75% 0 mm 318 W/m2
13:30 21.9 °C 18.1 °C 1018.2 hPa West 11.3 km/h 19.3 km/h 79% 0 mm 782 W/m2
13:40 22.3 °C 18.5 °C 1018.2 hPa West 8 km/h 20.9 km/h 79% 0 mm 599 W/m2
13:50 22.5 °C 18.4 °C 1018.2 hPa WNW 9.7 km/h 16.1 km/h 78% 0 mm 351 W/m2
14:00 22.2 °C 17.6 °C 1017.8 hPa WNW 9.7 km/h 19.3 km/h 75% 0 mm 196 W/m2
14:10 21.7 °C 17.7 °C 1017.8 hPa WNW 8 km/h 16.1 km/h 78% 0 mm 162 W/m2
14:20 21.4 °C 17.6 °C 1017.8 hPa WNW 3.2 km/h 12.9 km/h 79% 0 mm 186 W/m2
14:30 21.1 °C 17.3 °C 1017.8 hPa NW 4.8 km/h 11.3 km/h 79% 0 mm 181 W/m2
14:40 21.1 °C 17.3 °C 1017.8 hPa NW 3.2 km/h 11.3 km/h 79% 0 mm 198 W/m2
14:50 21.1 °C 17.5 °C 1017.8 hPa North 1.6 km/h 6.4 km/h 80% 0 mm 344 W/m2
15:00 21.2 °C 17.4 °C 1017.8 hPa NNE 3.2 km/h 9.7 km/h 79% 0 mm 515 W/m2
15:10 21.4 °C 17.6 °C 1017.8 hPa NE 3.2 km/h 12.9 km/h 79% 0 mm 354 W/m2
15:20 21.6 °C 17.6 °C 1017.8 hPa NNE 3.2 km/h 6.4 km/h 78% 0 mm 177 W/m2
15:30 21.6 °C 17.8 °C 1017.8 hPa Calm   8 km/h 79% 0 mm 194 W/m2
15:40 21.6 °C 18.2 °C 1017.8 hPa North 3.2 km/h 6.4 km/h 81% 0 mm 279 W/m2
15:50 21.7 °C 18.1 °C 1017.8 hPa North 4.8 km/h 9.7 km/h 80% 0 mm 247 W/m2
16:00 21.7 °C 17.7 °C 1017.8 hPa North 1.6 km/h 9.7 km/h 78% 0 mm 217 W/m2
16:10 21.7 °C 17.5 °C 1017.8 hPa NNW 1.6 km/h 4.8 km/h 77% 0 mm 162 W/m2
16:20 21.6 °C 17.6 °C 1017.8 hPa NNW 1.6 km/h 4.8 km/h 78% 0 mm 133 W/m2
16:30 21.5 °C 17.9 °C 1017.8 hPa NNW 1.6 km/h 3.2 km/h 80% 0.25 mm 149 W/m2
16:40 21.4 °C 17.8 °C 1017.8 hPa NNW 3.2 km/h 4.8 km/h 80% 0 mm 183 W/m2
16:50 21.5 °C 18.1 °C 1017.8 hPa Calm   4.8 km/h 81% 0 mm 200 W/m2
17:00 21.4 °C 17.6 °C 1017.8 hPa NNW 1.6 km/h 3.2 km/h 79% 0 mm 222 W/m2
17:10 21.4 °C 18 °C 1017.5 hPa West 8 km/h 9.7 km/h 81% 0 mm 267 W/m2
17:20 21.3 °C 17.7 °C 1017.5 hPa WNW 3.2 km/h 9.7 km/h 80% 0 mm 301 W/m2
17:30 21.4 °C 17.8 °C 1017.5 hPa Calm   3.2 km/h 80% 0 mm 190 W/m2
17:40 21.5 °C 17.7 °C 1017.5 hPa Calm   1.6 km/h 79% 0 mm 115 W/m2
17:50 21.3 °C 17.7 °C 1017.5 hPa West 1.6 km/h 4.8 km/h 80% 0 mm 86 W/m2
18:00 21.3 °C 17.7 °C 1017.5 hPa WSW 3.2 km/h 4.8 km/h 80% 0 mm 136 W/m2
18:10 21.4 °C 17.8 °C 1017.8 hPa WSW 3.2 km/h 8 km/h 80% 0 mm 264 W/m2
18:20 21.6 °C 18 °C 1017.8 hPa WSW 3.2 km/h 8 km/h 80% 0 mm 185 W/m2
18:30 21.5 °C 17.7 °C 1017.8 hPa WSW 1.6 km/h 4.8 km/h 79% 0 mm 79 W/m2
18:40 21.4 °C 17.6 °C 1017.8 hPa WSW 1.6 km/h 3.2 km/h 79% 0 mm 166 W/m2
18:50 21.5 °C 17.7 °C 1017.8 hPa Calm   3.2 km/h 79% 0 mm 72 W/m2
19:00 21.4 °C 17.4 °C 1017.8 hPa Calm   3.2 km/h 78% 0 mm 62 W/m2
19:10 21.4 °C 17.6 °C 1017.8 hPa SSW 3.2 km/h 4.8 km/h 79% 0 mm 68 W/m2
19:20 21.3 °C 17.5 °C 1017.8 hPa WSW 1.6 km/h 4.8 km/h 79% 0 mm 45 W/m2
19:30 21.2 °C 17.6 °C 1017.8 hPa SW 3.2 km/h 4.8 km/h 80% 0 mm 36 W/m2
19:40 21 °C 18 °C 1017.8 hPa SW 3.2 km/h 4.8 km/h 83% 0 mm 18 W/m2
19:50 20.7 °C 17.9 °C 1017.8 hPa WSW 1.6 km/h 4.8 km/h 84% 0 mm 9 W/m2
20:00 20.5 °C 17.9 °C 1018.2 hPa SW 1.6 km/h 3.2 km/h 85% 0 mm 4 W/m2
20:10 20.3 °C 17.7 °C 1018.2 hPa WSW 1.6 km/h 4.8 km/h 85% 0 mm 2 W/m2
20:20 20 °C 17.4 °C 1018.2 hPa SSW 3.2 km/h 4.8 km/h 85% 0 mm 0 W/m2
20:30 19.5 °C 16.9 °C 1018.2 hPa South 1.6 km/h 6.4 km/h 85% 0 mm 0 W/m2
20:40 19.1 °C 16.6 °C 1018.2 hPa SW 1.6 km/h 6.4 km/h 85% 0 mm 0 W/m2
20:50 18.9 °C 16.3 °C 1018.5 hPa Calm   3.2 km/h 85% 0 mm 0 W/m2
21:00 18.8 °C 16.2 °C 1018.5 hPa SSW 1.6 km/h 3.2 km/h 85% 0 mm 0 W/m2
21:10 18.5 °C 15.9 °C 1018.5 hPa SSE 3.2 km/h 4.8 km/h 85% 0 mm 0 W/m2
21:20 18.2 °C 15.8 °C 1018.5 hPa South 1.6 km/h 4.8 km/h 86% 0 mm 0 W/m2
21:30 18.1 °C 15.7 °C 1018.5 hPa Calm   1.6 km/h 86% 0 mm 0 W/m2
21:40 17.8 °C 15.4 °C 1018.5 hPa West 3.2 km/h 4.8 km/h 86% 0 mm 0 W/m2
21:50 17.6 °C 15.6 °C 1018.5 hPa Calm   3.2 km/h 88% 0 mm 0 W/m2
22:00 17.3 °C 15.3 °C 1018.5 hPa South 1.6 km/h 4.8 km/h 88% 0 mm 0 W/m2
22:10 17.1 °C 15.3 °C 1018.5 hPa SW 1.6 km/h 3.2 km/h 89% 0 mm 0 W/m2
22:20 16.9 °C 15.2 °C 1018.5 hPa Calm   3.2 km/h 90% 0 mm 0 W/m2
22:30 16.6 °C 15.1 °C 1018.8 hPa WSW 3.2 km/h 4.8 km/h 91% 0 mm 0 W/m2
22:40 16.3 °C 15.2 °C 1018.8 hPa SW 1.6 km/h 4.8 km/h 93% 0 mm 0 W/m2
22:50 16.1 °C 15.2 °C 1018.5 hPa Calm   3.2 km/h 94% 0 mm 0 W/m2
23:00 15.9 °C 14.8 °C 1018.5 hPa Calm   3.2 km/h 93% 0 mm 0 W/m2
23:10 15.8 °C 14.8 °C 1018.5 hPa Calm   4.8 km/h 94% 0 mm 0 W/m2
23:20 15.6 °C 14.7 °C 1018.5 hPa NW 1.6 km/h 3.2 km/h 94% 0 mm 0 W/m2
23:30 15.4 °C 14.4 °C 1018.5 hPa West 3.2 km/h 6.4 km/h 94% 0 mm 0 W/m2
23:40 15.1 °C 14.3 °C 1018.8 hPa Calm   8 km/h 95% 0 mm 0 W/m2
23:50 15 °C 14.2 °C 1018.5 hPa NW 3.2 km/h 4.8 km/h 95% 0 mm 0 W/m2
Knjazevac, Serbia
Compliments of Weather Underground - 2 mb